createdAt,value
2023-04-02T00:00:15.986Z,29.84
2023-04-02T00:01:15.954Z,25.53
2023-04-02T00:02:15.973Z,28.85
2023-04-02T00:03:16.008Z,31.89
2023-04-02T00:04:16.152Z,31.26
2023-04-02T00:05:15.954Z,33.92
2023-04-02T00:06:15.929Z,33.46
2023-04-02T00:07:15.893Z,34.20
2023-04-02T00:08:15.900Z,30.65
2023-04-02T00:09:15.923Z,30.86
2023-04-02T00:10:15.917Z,30.21
2023-04-02T00:11:15.913Z,28.83
2023-04-02T00:12:15.945Z,27.43
2023-04-02T00:13:15.925Z,28.77
2023-04-02T00:14:15.908Z,34.56
2023-04-02T00:15:15.896Z,33.34
2023-04-02T00:16:15.995Z,30.28
2023-04-02T00:17:15.897Z,29.00
2023-04-02T00:18:15.939Z,34.83
2023-04-02T00:19:15.962Z,32.93
2023-04-02T00:20:15.973Z,31.81
2023-04-02T00:21:15.971Z,29.00
2023-04-02T00:22:15.979Z,29.59
2023-04-02T00:23:16.000Z,31.65
2023-04-02T00:24:16.005Z,30.31
2023-04-02T00:25:16.016Z,29.43
2023-04-02T00:26:15.993Z,30.02
2023-04-02T00:27:16.005Z,26.42
2023-04-02T00:28:15.988Z,31.93
2023-04-02T00:29:15.985Z,30.29
2023-04-02T00:30:16.025Z,28.84
2023-04-02T00:31:15.998Z,27.00
2023-04-02T00:32:16.020Z,28.35
2023-04-02T00:33:16.038Z,26.82
2023-04-02T00:34:16.030Z,27.55
2023-04-02T00:35:16.071Z,33.39
2023-04-02T00:36:16.133Z,33.33
2023-04-02T00:37:16.098Z,30.07
2023-04-02T00:38:16.052Z,30.91
2023-04-02T00:39:16.109Z,33.01
2023-04-02T00:40:16.119Z,30.25
2023-04-02T00:41:16.122Z,30.75
2023-04-02T00:42:16.133Z,32.49
2023-04-02T00:43:16.106Z,33.52
2023-04-02T00:44:16.164Z,31.22
2023-04-02T00:45:16.148Z,32.55
2023-04-02T00:46:16.231Z,33.18
2023-04-02T00:47:16.155Z,30.13
2023-04-02T00:48:16.167Z,32.17
2023-04-02T00:49:16.198Z,27.04
2023-04-02T00:50:16.240Z,30.47
2023-04-02T00:51:16.231Z,32.56
2023-04-02T00:52:16.227Z,29.60
2023-04-02T00:53:16.247Z,31.80
2023-04-02T00:54:16.230Z,29.34
2023-04-02T00:55:16.270Z,32.98
2023-04-02T00:56:16.265Z,32.03
2023-04-02T00:57:16.282Z,29.62
2023-04-02T00:58:16.292Z,31.69
2023-04-02T00:59:16.302Z,35.97
2023-04-02T01:00:16.326Z,34.03
2023-04-02T01:01:16.358Z,32.32
2023-04-02T01:02:16.361Z,33.28
2023-04-02T01:03:16.568Z,31.39
2023-04-02T01:04:16.335Z,32.38
2023-04-02T01:05:16.373Z,33.12
2023-04-02T01:06:16.360Z,34.77
2023-04-02T01:07:16.362Z,33.17
2023-04-02T01:08:16.387Z,32.27
2023-04-02T01:09:16.349Z,31.97
2023-04-02T01:10:16.386Z,29.93
2023-04-02T01:11:16.432Z,34.24
2023-04-02T01:12:16.427Z,32.34
2023-04-02T01:13:16.453Z,34.59
2023-04-02T01:14:16.412Z,34.36
2023-04-02T01:15:16.492Z,30.73
2023-04-02T01:16:16.458Z,34.35
2023-04-02T01:17:16.439Z,31.72
2023-04-02T01:18:16.456Z,34.13
2023-04-02T01:19:16.475Z,32.99
2023-04-02T01:20:16.476Z,35.24
2023-04-02T01:21:16.497Z,34.26
2023-04-02T01:22:16.514Z,35.15
2023-04-02T01:23:16.482Z,31.05
2023-04-02T01:24:16.509Z,35.95
2023-04-02T01:25:16.489Z,36.38
2023-04-02T01:26:16.496Z,33.41
2023-04-02T01:27:16.530Z,35.01
2023-04-02T01:28:16.548Z,33.28
2023-04-02T01:29:16.544Z,36.78
2023-04-02T01:30:16.555Z,34.68
2023-04-02T01:31:16.582Z,35.20
2023-04-02T01:32:16.572Z,34.12
2023-04-02T01:33:16.624Z,34.49
2023-04-02T01:34:16.634Z,33.74
2023-04-02T01:35:16.644Z,34.37
2023-04-02T01:36:16.661Z,35.71
2023-04-02T01:37:16.616Z,35.88
2023-04-02T01:38:16.638Z,35.60
2023-04-02T01:39:16.659Z,33.07
2023-04-02T01:40:16.659Z,34.41
2023-04-02T01:41:16.708Z,39.19
2023-04-02T01:42:16.699Z,35.85
2023-04-02T01:43:16.761Z,37.46
2023-04-02T01:44:16.736Z,35.01
2023-04-02T01:45:16.753Z,36.60
2023-04-02T01:46:16.765Z,30.86
2023-04-02T01:47:16.749Z,33.81
2023-04-02T01:48:16.793Z,33.90
2023-04-02T01:49:16.758Z,33.89
2023-04-02T01:50:16.765Z,36.09
2023-04-02T01:51:16.778Z,32.73
2023-04-02T01:52:16.784Z,30.53
2023-04-02T01:53:16.788Z,34.13
2023-04-02T01:54:16.820Z,34.04
2023-04-02T01:55:16.781Z,34.19
2023-04-02T01:56:16.808Z,34.53
2023-04-02T01:57:16.832Z,34.19
2023-04-02T01:58:16.773Z,34.88
2023-04-02T01:59:16.808Z,34.49
2023-04-02T02:00:16.841Z,34.68
2023-04-02T02:01:16.903Z,36.74
2023-04-02T02:02:16.892Z,36.29
2023-04-02T02:03:16.928Z,35.24
2023-04-02T02:04:16.861Z,34.49
2023-04-02T02:05:16.866Z,33.62
2023-04-02T02:06:16.879Z,33.48
2023-04-02T02:07:16.884Z,34.82
2023-04-02T02:08:16.882Z,35.43
2023-04-02T02:09:16.896Z,33.92
2023-04-02T02:10:16.901Z,34.92
2023-04-02T02:11:16.938Z,34.84
2023-04-02T02:12:16.908Z,33.78
2023-04-02T02:13:16.952Z,34.14
2023-04-02T02:14:16.953Z,32.80
2023-04-02T02:15:16.986Z,34.92
2023-04-02T02:16:17.008Z,33.68
2023-04-02T02:17:17.017Z,36.40
2023-04-02T02:18:17.015Z,35.66
2023-04-02T02:19:17.057Z,33.99
2023-04-02T02:20:17.039Z,35.61
2023-04-02T02:21:17.036Z,36.88
2023-04-02T02:22:17.081Z,34.13
2023-04-02T02:23:17.115Z,33.84
2023-04-02T02:24:17.123Z,33.61
2023-04-02T02:25:17.121Z,34.59
2023-04-02T02:26:17.145Z,35.66
2023-04-02T02:27:17.128Z,35.15
2023-04-02T02:28:17.143Z,35.41
2023-04-02T02:29:17.137Z,35.29
2023-04-02T02:30:17.141Z,37.47
2023-04-02T02:31:17.180Z,35.36
2023-04-02T02:32:17.209Z,36.29
2023-04-02T02:33:17.219Z,34.60
2023-04-02T02:34:17.201Z,31.21
2023-04-02T02:35:17.215Z,35.91
2023-04-02T02:36:17.267Z,35.87
2023-04-02T02:37:17.265Z,36.84
2023-04-02T02:38:17.241Z,36.31
2023-04-02T02:39:17.248Z,37.39
2023-04-02T02:40:17.236Z,38.01
2023-04-02T02:41:17.251Z,35.63
2023-04-02T02:42:17.273Z,36.90
2023-04-02T02:43:17.292Z,35.55
2023-04-02T02:44:17.307Z,34.91
2023-04-02T02:45:17.352Z,35.98
2023-04-02T02:46:17.401Z,36.98
2023-04-02T02:47:17.346Z,36.75
2023-04-02T02:48:17.379Z,35.85
2023-04-02T02:49:17.381Z,36.14
2023-04-02T02:50:17.378Z,35.76
2023-04-02T02:51:17.389Z,37.91
2023-04-02T02:52:17.467Z,35.95
2023-04-02T02:53:17.412Z,34.94
2023-04-02T02:54:17.408Z,34.89
2023-04-02T02:55:17.419Z,34.93
2023-04-02T02:56:17.445Z,36.31
2023-04-02T02:57:17.574Z,36.65
2023-04-02T02:58:17.467Z,36.68
2023-04-02T02:59:17.508Z,34.65
2023-04-02T03:00:17.504Z,39.14
2023-04-02T03:01:17.561Z,37.86
2023-04-02T03:02:17.592Z,35.78
2023-04-02T03:03:17.694Z,37.13
2023-04-02T03:04:17.676Z,34.77
2023-04-02T03:05:17.552Z,37.46
2023-04-02T03:06:17.595Z,37.37
2023-04-02T03:07:17.600Z,37.46
2023-04-02T03:08:17.611Z,36.33
2023-04-02T03:09:17.617Z,35.02
2023-04-02T03:10:17.634Z,38.33
2023-04-02T03:11:17.625Z,36.34
2023-04-02T03:12:17.695Z,34.74
2023-04-02T03:13:17.671Z,36.27
2023-04-02T03:14:17.678Z,36.97
2023-04-02T03:15:17.692Z,37.24
2023-04-02T03:16:17.748Z,36.32
2023-04-02T03:17:17.725Z,36.24
2023-04-02T03:18:17.741Z,36.03
2023-04-02T03:19:17.756Z,36.28
2023-04-02T03:20:17.789Z,36.79
2023-04-02T03:21:17.805Z,37.24
2023-04-02T03:22:17.803Z,37.96
2023-04-02T03:23:19.233Z,39.58
2023-04-02T03:24:17.892Z,37.69
2023-04-02T03:25:17.888Z,35.78
2023-04-02T03:26:17.944Z,38.45
2023-04-02T03:27:17.972Z,38.19
2023-04-02T03:28:17.985Z,36.80
2023-04-02T03:29:18.010Z,37.89
2023-04-02T03:30:18.021Z,37.86
2023-04-02T03:31:18.089Z,37.46
2023-04-02T03:32:18.067Z,39.34
2023-04-02T03:33:18.081Z,37.17
2023-04-02T03:34:18.115Z,38.37
2023-04-02T03:35:18.169Z,36.15
2023-04-02T03:36:18.213Z,35.99
2023-04-02T03:37:18.138Z,37.49
2023-04-02T03:38:18.181Z,38.45
2023-04-02T03:39:18.205Z,35.29
2023-04-02T03:40:18.204Z,35.11
2023-04-02T03:41:18.259Z,35.28
2023-04-02T03:42:18.261Z,34.19
2023-04-02T03:43:18.259Z,35.06
2023-04-02T03:44:18.302Z,37.36
2023-04-02T03:45:18.315Z,38.18
2023-04-02T03:46:18.370Z,37.52
2023-04-02T03:47:18.386Z,36.40
2023-04-02T03:48:18.382Z,38.81
2023-04-02T03:49:18.458Z,35.67
2023-04-02T03:50:18.450Z,35.02
2023-04-02T03:51:18.458Z,36.46
2023-04-02T03:52:18.475Z,39.79
2023-04-02T03:53:18.534Z,38.38
2023-04-02T03:54:18.552Z,37.62
2023-04-02T03:55:18.611Z,37.99
2023-04-02T03:56:18.608Z,37.28
2023-04-02T03:57:18.604Z,38.81
2023-04-02T03:58:18.628Z,36.39
2023-04-02T03:59:18.662Z,36.25
2023-04-02T04:00:18.660Z,38.06
2023-04-02T04:01:18.707Z,33.14
2023-04-02T04:02:18.781Z,35.16
2023-04-02T04:03:18.729Z,38.49
2023-04-02T04:04:18.840Z,37.84
2023-04-02T04:05:18.794Z,38.19
2023-04-02T04:06:20.189Z,37.81
2023-04-02T04:07:18.807Z,37.85
2023-04-02T04:08:18.842Z,38.33
2023-04-02T04:09:18.868Z,37.86
2023-04-02T04:10:18.863Z,38.52
2023-04-02T04:11:18.933Z,35.71
2023-04-02T04:12:18.925Z,37.85
2023-04-02T04:13:18.922Z,37.01
2023-04-02T04:14:18.930Z,37.76
2023-04-02T04:15:18.996Z,36.59
2023-04-02T04:16:19.046Z,36.06
2023-04-02T04:17:19.066Z,37.82
2023-04-02T04:18:19.092Z,38.37
2023-04-02T04:19:19.066Z,38.22
2023-04-02T04:20:19.141Z,37.52
2023-04-02T04:21:19.101Z,36.92
2023-04-02T04:22:19.210Z,37.37
2023-04-02T04:23:19.146Z,37.04
2023-04-02T04:24:19.177Z,38.40
2023-04-02T04:25:19.177Z,37.40
2023-04-02T04:26:19.240Z,39.74
2023-04-02T04:27:19.230Z,38.24
2023-04-02T04:28:19.236Z,38.00
2023-04-02T04:29:19.318Z,37.48
2023-04-02T04:30:19.308Z,38.19
2023-04-02T04:31:19.354Z,36.44
2023-04-02T04:32:19.520Z,36.41
2023-04-02T04:33:19.393Z,39.04
2023-04-02T04:34:19.443Z,37.16
2023-04-02T04:35:19.419Z,37.37
2023-04-02T04:36:19.522Z,35.20
2023-04-02T04:37:19.499Z,37.53
2023-04-02T04:38:19.586Z,38.14
2023-04-02T04:39:19.577Z,38.04
2023-04-02T04:40:19.625Z,37.54
2023-04-02T04:41:19.657Z,37.99
2023-04-02T04:42:19.694Z,38.65
2023-04-02T04:43:19.744Z,37.14
2023-04-02T04:44:19.769Z,38.43
2023-04-02T04:45:19.848Z,40.65
2023-04-02T04:46:19.890Z,38.36
2023-04-02T04:47:19.837Z,38.76
2023-04-02T04:48:19.910Z,36.86
2023-04-02T04:49:19.969Z,36.61
2023-04-02T04:50:19.967Z,38.19
2023-04-02T04:51:20.019Z,38.92
2023-04-02T04:52:20.015Z,38.02
2023-04-02T04:53:20.073Z,38.58
2023-04-02T04:54:20.104Z,38.76
2023-04-02T04:55:20.143Z,38.71
2023-04-02T04:56:20.208Z,38.39
2023-04-02T04:57:20.259Z,37.64
2023-04-02T04:58:20.207Z,38.93
2023-04-02T04:59:20.233Z,39.84
2023-04-02T05:00:20.271Z,40.36
2023-04-02T05:01:20.371Z,40.52
2023-04-02T05:02:20.365Z,37.36
2023-04-02T05:03:20.402Z,38.79
2023-04-02T05:04:20.439Z,38.16
2023-04-02T05:05:20.480Z,37.60
2023-04-02T05:06:20.487Z,37.37
2023-04-02T05:07:20.490Z,35.91
2023-04-02T05:08:20.853Z,37.73
2023-04-02T05:09:20.553Z,37.06
2023-04-02T05:10:20.616Z,37.35
2023-04-02T05:11:20.625Z,37.33
2023-04-02T05:12:20.645Z,36.85
2023-04-02T05:13:20.642Z,36.27
2023-04-02T05:14:20.696Z,37.76
2023-04-02T05:15:20.688Z,35.64
2023-04-02T05:16:20.724Z,37.66
2023-04-02T05:17:20.760Z,38.63
2023-04-02T05:18:20.796Z,38.45
2023-04-02T05:19:20.778Z,36.35
2023-04-02T05:20:20.832Z,37.24
2023-04-02T05:21:20.895Z,38.12
2023-04-02T05:22:20.890Z,38.86
2023-04-02T05:23:20.950Z,38.09
2023-04-02T05:24:20.906Z,37.23
2023-04-02T05:25:20.972Z,36.77
2023-04-02T05:26:20.971Z,39.71
2023-04-02T05:27:21.048Z,38.56
2023-04-02T05:28:21.045Z,37.86
2023-04-02T05:29:21.047Z,39.83
2023-04-02T05:30:21.077Z,41.50
2023-04-02T05:31:21.150Z,39.27
2023-04-02T05:32:21.121Z,38.93
2023-04-02T05:33:21.114Z,40.28
2023-04-02T05:34:21.110Z,40.83
2023-04-02T05:35:21.151Z,38.38
2023-04-02T05:36:21.221Z,36.84
2023-04-02T05:37:21.219Z,35.77
2023-04-02T05:38:21.221Z,34.00
2023-04-02T05:39:21.233Z,38.09
2023-04-02T05:40:21.236Z,38.02
2023-04-02T05:41:21.274Z,40.55
2023-04-02T05:42:21.258Z,39.25
2023-04-02T05:43:21.301Z,40.81
2023-04-02T05:44:21.284Z,39.60
2023-04-02T05:45:21.314Z,42.74
2023-04-02T05:46:21.421Z,39.92
2023-04-02T05:47:21.369Z,40.27
2023-04-02T05:48:21.390Z,42.67
2023-04-02T05:49:21.394Z,43.42
2023-04-02T05:50:21.396Z,40.83
2023-04-02T05:51:21.405Z,42.05
2023-04-02T05:52:21.385Z,41.46
2023-04-02T05:53:21.415Z,37.58
2023-04-02T05:54:21.463Z,41.10
2023-04-02T05:55:21.483Z,39.71
2023-04-02T05:56:21.554Z,41.58
2023-04-02T05:57:24.946Z,40.31
2023-04-02T05:59:22.589Z,40.76
2023-04-02T06:00:21.514Z,41.60
2023-04-02T06:01:21.516Z,42.50
2023-04-02T06:02:21.553Z,41.22
2023-04-02T06:03:21.491Z,41.58
2023-04-02T06:04:21.509Z,41.95
2023-04-02T06:05:21.455Z,42.95
2023-04-02T06:06:21.455Z,42.93
2023-04-02T06:07:21.463Z,42.68
2023-04-02T06:08:21.477Z,42.20
2023-04-02T06:09:21.469Z,40.42
2023-04-02T06:10:23.478Z,42.84
2023-04-02T06:11:21.420Z,42.87
2023-04-02T06:12:21.450Z,42.97
2023-04-02T06:13:21.459Z,42.94
2023-04-02T06:14:21.416Z,40.47
2023-04-02T06:15:21.476Z,41.76
2023-04-02T06:16:21.592Z,43.20
2023-04-02T06:17:21.376Z,40.58
2023-04-02T06:18:21.417Z,42.10
2023-04-02T06:19:21.382Z,44.02
2023-04-02T06:20:21.365Z,41.89
2023-04-02T06:21:21.355Z,38.49
2023-04-02T06:22:21.363Z,40.71
2023-04-02T06:23:21.379Z,39.09
2023-04-02T06:24:21.330Z,39.56
2023-04-02T06:25:21.322Z,41.53
2023-04-02T06:26:21.338Z,41.12
2023-04-02T06:27:21.303Z,41.84
2023-04-02T06:28:21.341Z,41.36
2023-04-02T06:29:21.325Z,36.46
2023-04-02T06:30:21.347Z,38.92
2023-04-02T06:31:21.362Z,38.87
2023-04-02T06:33:21.292Z,37.05
2023-04-02T06:34:21.246Z,36.09
2023-04-02T06:35:21.281Z,34.24
2023-04-02T06:36:21.294Z,37.07
2023-04-02T06:37:21.288Z,32.61
2023-04-02T06:38:21.268Z,31.45
2023-04-02T06:39:21.232Z,29.78
2023-04-02T06:40:21.235Z,32.14
2023-04-02T06:41:21.217Z,31.01
2023-04-02T06:42:21.215Z,31.49
2023-04-02T06:43:21.253Z,26.34
2023-04-02T06:44:21.198Z,31.23
2023-04-02T06:45:21.207Z,29.17
2023-04-02T06:46:21.224Z,28.11
2023-04-02T06:47:21.196Z,27.79
2023-04-02T06:48:21.184Z,29.45
2023-04-02T06:49:21.207Z,26.54
2023-04-02T06:50:21.207Z,29.30
2023-04-02T06:51:21.136Z,27.46
2023-04-02T06:52:21.154Z,26.64
2023-04-02T06:53:21.153Z,29.00
2023-04-02T06:54:21.129Z,29.40
2023-04-02T06:55:21.188Z,25.00
2023-04-02T06:56:21.090Z,28.19
2023-04-02T06:57:21.211Z,28.62
2023-04-02T06:58:21.103Z,29.04
2023-04-02T06:59:21.094Z,27.81
2023-04-02T07:00:21.173Z,25.69
2023-04-02T07:01:21.125Z,26.47
2023-04-02T07:02:21.086Z,28.12
2023-04-02T07:03:21.063Z,27.82
2023-04-02T07:04:21.097Z,27.99
2023-04-02T07:05:21.050Z,27.43
2023-04-02T07:06:21.044Z,27.30
2023-04-02T07:07:21.038Z,28.88
2023-04-02T07:08:21.022Z,29.08
2023-04-02T07:09:21.024Z,28.32
2023-04-02T07:10:21.005Z,30.02
2023-04-02T07:11:21.098Z,26.27
2023-04-02T07:12:20.967Z,28.23
2023-04-02T07:13:20.983Z,30.48
2023-04-02T07:14:20.988Z,30.04
2023-04-02T07:15:20.997Z,31.52
2023-04-02T07:16:20.965Z,30.40
2023-04-02T07:17:21.056Z,31.59
2023-04-02T07:18:21.081Z,31.38
2023-04-02T07:19:20.930Z,29.57
2023-04-02T07:20:20.930Z,28.25
2023-04-02T07:21:20.904Z,29.71
2023-04-02T07:22:20.945Z,28.71
2023-04-02T07:23:20.924Z,32.28
2023-04-02T07:24:20.892Z,29.53
2023-04-02T07:25:20.896Z,33.33
2023-04-02T07:26:20.893Z,31.99
2023-04-02T07:27:20.915Z,32.53
2023-04-02T07:28:22.736Z,29.11
2023-04-02T07:29:21.033Z,33.04
2023-04-02T07:30:21.068Z,34.16
2023-04-02T07:31:21.193Z,32.12
2023-04-02T07:32:21.171Z,33.91
2023-04-02T07:33:21.220Z,31.33
2023-04-02T07:34:21.273Z,33.83
2023-04-02T07:35:21.327Z,35.16
2023-04-02T07:36:21.355Z,32.53
2023-04-02T07:37:21.386Z,34.27
2023-04-02T07:38:21.421Z,35.25
2023-04-02T07:39:21.461Z,35.35
2023-04-02T07:40:21.531Z,35.23
2023-04-02T07:41:21.521Z,33.89
2023-04-02T07:42:21.586Z,34.47
2023-04-02T07:43:21.580Z,36.12
2023-04-02T07:44:21.662Z,36.38
2023-04-02T07:45:21.680Z,38.46
2023-04-02T07:46:21.731Z,39.44
2023-04-02T07:47:21.729Z,35.60
2023-04-02T07:48:21.775Z,39.29
2023-04-02T07:49:21.733Z,39.15
2023-04-02T07:50:21.711Z,39.28
2023-04-02T07:51:21.776Z,36.77
2023-04-02T07:52:21.775Z,37.25
2023-04-02T07:53:21.761Z,37.61
2023-04-02T07:54:21.807Z,36.44
2023-04-02T07:55:21.794Z,37.51
2023-04-02T07:56:21.774Z,37.23
2023-04-02T07:57:21.893Z,38.31
2023-04-02T07:58:21.810Z,38.59
2023-04-02T07:59:21.815Z,40.51
2023-04-02T08:00:21.864Z,38.31
2023-04-02T08:01:21.836Z,38.55
2023-04-02T08:02:21.961Z,40.00
2023-04-02T08:03:22.029Z,42.90
2023-04-02T08:04:22.069Z,39.76
2023-04-02T08:05:22.009Z,41.03
2023-04-02T08:06:22.134Z,41.85
2023-04-02T08:07:22.105Z,39.85
2023-04-02T08:08:22.137Z,43.35
2023-04-02T08:09:22.204Z,42.35
2023-04-02T08:10:22.257Z,41.95
2023-04-02T08:11:22.380Z,44.30
2023-04-02T08:12:22.408Z,42.13
2023-04-02T08:13:22.456Z,42.12
2023-04-02T08:14:23.435Z,40.96
2023-04-02T08:15:22.547Z,42.76
2023-04-02T08:16:22.589Z,40.47
2023-04-02T08:17:22.651Z,42.19
2023-04-02T08:18:22.650Z,41.51
2023-04-02T08:19:22.699Z,44.06
2023-04-02T08:20:22.725Z,45.17
2023-04-02T08:21:22.808Z,41.68
2023-04-02T08:22:22.784Z,42.18
2023-04-02T08:23:22.842Z,43.27
2023-04-02T08:24:22.907Z,46.04
2023-04-02T08:25:22.917Z,43.16
2023-04-02T08:26:22.917Z,45.37
2023-04-02T08:27:22.919Z,42.31
2023-04-02T08:28:22.972Z,45.61
2023-04-02T08:29:23.011Z,43.24
2023-04-02T08:30:23.094Z,41.94
2023-04-02T08:31:23.224Z,47.96
2023-04-02T08:32:23.162Z,42.68
2023-04-02T08:33:23.217Z,44.30
2023-04-02T08:34:23.193Z,42.89
2023-04-02T08:35:23.230Z,43.52
2023-04-02T08:36:23.358Z,40.16
2023-04-02T08:37:23.274Z,40.38
2023-04-02T08:38:23.281Z,42.24
2023-04-02T08:39:23.273Z,39.67
2023-04-02T08:40:23.286Z,42.40
2023-04-02T08:41:23.336Z,42.57
2023-04-02T08:42:23.419Z,44.99
2023-04-02T08:43:23.721Z,44.35
2023-04-02T08:44:23.384Z,44.79
2023-04-02T08:45:24.970Z,44.78
2023-04-02T08:46:23.518Z,44.36
2023-04-02T08:47:23.430Z,42.52
2023-04-02T08:48:23.472Z,44.06
2023-04-02T08:49:23.456Z,45.55
2023-04-02T08:50:23.485Z,42.79
2023-04-02T08:51:23.459Z,43.68
2023-04-02T08:52:23.496Z,46.32
2023-04-02T08:53:23.508Z,44.99
2023-04-02T08:54:23.514Z,45.87
2023-04-02T08:55:23.487Z,46.43
2023-04-02T08:56:23.491Z,44.04
2023-04-02T08:57:23.596Z,43.87
2023-04-02T08:58:23.557Z,44.52
2023-04-02T08:59:23.592Z,46.22
2023-04-02T09:00:23.570Z,45.50
2023-04-02T09:01:23.585Z,43.54
2023-04-02T09:02:23.625Z,45.17
2023-04-02T09:03:23.586Z,45.01
2023-04-02T09:04:23.628Z,43.62
2023-04-02T09:05:23.582Z,44.27
2023-04-02T09:06:23.602Z,44.44
2023-04-02T09:07:23.571Z,42.37
2023-04-02T09:08:23.550Z,45.44
2023-04-02T09:09:23.565Z,42.83
2023-04-02T09:10:23.557Z,40.95
2023-04-02T09:11:23.581Z,41.60
2023-04-02T09:12:23.579Z,40.66
2023-04-02T09:13:23.628Z,37.43
2023-04-02T09:14:23.610Z,39.00
2023-04-02T09:15:23.599Z,38.31
2023-04-02T09:16:23.620Z,36.73
2023-04-02T09:17:23.569Z,38.47
2023-04-02T09:18:23.613Z,34.14
2023-04-02T09:19:23.656Z,35.17
2023-04-02T09:20:23.598Z,32.80
2023-04-02T09:21:23.694Z,33.62
2023-04-02T09:22:23.650Z,32.76
2023-04-02T09:23:23.693Z,28.99
2023-04-02T09:24:23.715Z,33.07
2023-04-02T09:25:23.646Z,29.42
2023-04-02T09:26:23.716Z,30.23
2023-04-02T09:27:23.739Z,30.69
2023-04-02T09:28:23.742Z,27.12
2023-04-02T09:29:23.801Z,29.51
2023-04-02T09:30:23.828Z,28.34
2023-04-02T09:31:23.908Z,27.33
2023-04-02T09:32:23.948Z,27.66
2023-04-02T09:33:23.951Z,28.01
2023-04-02T09:34:23.990Z,29.88
2023-04-02T09:35:26.625Z,25.12
2023-04-02T09:36:24.048Z,30.27
2023-04-02T09:37:23.956Z,26.60
2023-04-02T09:38:23.926Z,28.69
2023-04-02T09:39:23.962Z,28.01
2023-04-02T09:40:23.931Z,28.36
2023-04-02T09:41:23.956Z,27.17
2023-04-02T09:42:23.915Z,25.70
2023-04-02T09:43:23.902Z,28.09
2023-04-02T09:44:23.907Z,28.29
2023-04-02T09:45:23.917Z,26.38
2023-04-02T09:46:23.931Z,26.21
2023-04-02T09:47:23.929Z,29.70
2023-04-02T09:48:23.893Z,26.72
2023-04-02T09:49:23.900Z,26.61
2023-04-02T09:50:23.892Z,26.84
2023-04-02T09:51:23.885Z,29.13
2023-04-02T09:52:23.879Z,29.38
2023-04-02T09:53:23.875Z,28.63
2023-04-02T09:54:23.825Z,25.13
2023-04-02T09:55:23.825Z,27.51
2023-04-02T09:56:23.869Z,28.65
2023-04-02T09:57:24.176Z,25.44
2023-04-02T09:58:23.813Z,27.49
2023-04-02T09:59:23.773Z,25.90
2023-04-02T10:00:31.231Z,25.14
2023-04-02T10:01:24.810Z,25.49
2023-04-02T10:02:23.764Z,26.18
2023-04-02T10:03:23.756Z,26.52
2023-04-02T10:04:25.847Z,27.31
2023-04-02T10:05:37.246Z,30.38
2023-04-02T10:06:24.920Z,25.36
2023-04-02T10:07:23.856Z,25.57
2023-04-02T10:08:23.834Z,25.60
2023-04-02T10:09:23.877Z,22.57
2023-04-02T10:10:32.649Z,21.12
2023-04-02T10:11:26.886Z,25.25
2023-04-02T10:12:24.806Z,25.45
2023-04-02T10:13:23.875Z,25.97
2023-04-02T10:14:23.803Z,25.18
2023-04-02T10:15:23.809Z,19.82
2023-04-02T10:16:25.655Z,16.56
2023-04-02T10:17:23.939Z,20.76
2023-04-02T10:18:23.772Z,15.23
2023-04-02T10:19:23.848Z,18.13
2023-04-02T10:20:23.765Z,16.83
2023-04-02T10:21:23.724Z,16.71
2023-04-02T10:22:23.768Z,27.00
2023-04-02T10:23:23.830Z,27.27
2023-04-02T10:24:23.728Z,25.88
2023-04-02T10:25:23.774Z,25.00
2023-04-02T10:26:23.753Z,25.54
2023-04-02T10:27:23.743Z,26.07
2023-04-02T10:28:23.757Z,28.22
2023-04-02T10:29:23.742Z,29.24
2023-04-02T10:30:23.725Z,28.24
2023-04-02T10:31:23.768Z,25.98
2023-04-02T10:32:23.723Z,27.71
2023-04-02T10:33:23.741Z,26.79
2023-04-02T10:34:23.662Z,25.31
2023-04-02T10:35:23.649Z,26.93
2023-04-02T10:36:23.680Z,27.33
2023-04-02T10:37:23.693Z,26.15
2023-04-02T10:38:23.664Z,25.96
2023-04-02T10:39:23.673Z,27.14
2023-04-02T10:40:23.635Z,27.20
2023-04-02T10:41:23.642Z,27.15
2023-04-02T10:42:23.622Z,26.66
2023-04-02T10:43:23.649Z,26.63
2023-04-02T10:44:23.598Z,30.10
2023-04-02T10:45:23.606Z,29.43
2023-04-02T10:46:25.372Z,28.30
2023-04-02T10:47:23.613Z,28.36
2023-04-02T10:48:23.580Z,27.70
2023-04-02T10:49:23.636Z,25.54
2023-04-02T10:50:23.590Z,26.17
2023-04-02T10:51:23.579Z,26.08
2023-04-02T10:52:23.584Z,26.84
2023-04-02T10:53:23.574Z,27.48
2023-04-02T10:54:23.561Z,25.00
2023-04-02T10:55:23.575Z,29.76
2023-04-02T10:56:23.560Z,25.49
2023-04-02T10:57:23.575Z,25.00
2023-04-02T10:58:23.543Z,27.88
2023-04-02T10:59:23.539Z,29.28
2023-04-02T11:00:23.526Z,26.01
2023-04-02T11:01:23.630Z,32.59
2023-04-02T11:02:23.595Z,26.22
2023-04-02T11:03:23.627Z,31.65
2023-04-02T11:04:23.550Z,26.09
2023-04-02T11:05:23.591Z,31.58
2023-04-02T11:06:23.652Z,25.39
2023-04-02T11:07:23.650Z,28.17
2023-04-02T11:08:23.653Z,25.00
2023-04-02T11:09:23.664Z,31.17
2023-04-02T11:10:23.696Z,25.51
2023-04-02T11:11:23.705Z,25.49
2023-04-02T11:12:23.768Z,25.84
2023-04-02T11:13:23.758Z,27.86
2023-04-02T11:14:23.762Z,29.38
2023-04-02T11:15:23.839Z,31.57
2023-04-02T11:16:23.937Z,25.65
2023-04-02T11:17:23.940Z,25.00
2023-04-02T11:18:23.894Z,26.25
2023-04-02T11:19:23.937Z,25.94
2023-04-02T11:20:23.944Z,27.07
2023-04-02T11:21:24.004Z,30.33
2023-04-02T11:22:23.974Z,29.95
2023-04-02T11:23:24.021Z,27.74
2023-04-02T11:24:24.032Z,28.91
2023-04-02T11:25:24.086Z,27.05
2023-04-02T11:26:24.119Z,26.55
2023-04-02T11:27:24.096Z,25.00
2023-04-02T11:28:25.130Z,30.45
2023-04-02T11:29:24.174Z,28.24
2023-04-02T11:30:24.183Z,25.00
2023-04-02T11:31:24.270Z,28.53
2023-04-02T11:32:24.304Z,31.07
2023-04-02T11:33:35.836Z,31.33
2023-04-02T11:34:25.323Z,31.39
2023-04-02T11:35:24.245Z,31.84
2023-04-02T11:36:24.278Z,28.23
2023-04-02T11:37:24.268Z,28.35
2023-04-02T11:38:24.279Z,26.62
2023-04-02T11:39:24.227Z,25.14
2023-04-02T11:40:24.241Z,26.51
2023-04-02T11:41:24.243Z,27.87
2023-04-02T11:42:24.270Z,25.63
2023-04-02T11:43:24.208Z,28.50
2023-04-02T11:44:24.169Z,30.50
2023-04-02T11:45:24.266Z,37.31
2023-04-02T11:46:24.252Z,35.01
2023-04-02T11:47:24.292Z,39.07
2023-04-02T11:48:24.298Z,36.29
2023-04-02T11:49:24.322Z,34.77
2023-04-02T11:50:24.432Z,41.17
2023-04-02T11:51:24.362Z,40.87
2023-04-02T11:52:24.423Z,39.78
2023-04-02T11:53:24.491Z,39.62
2023-04-02T11:54:24.494Z,41.81
2023-04-02T11:55:24.553Z,45.45
2023-04-02T11:56:24.571Z,44.10
2023-04-02T11:57:24.640Z,46.59
2023-04-02T11:58:24.613Z,47.22
2023-04-02T11:59:24.672Z,46.07
2023-04-02T12:00:24.735Z,45.53
2023-04-02T12:01:24.734Z,48.34
2023-04-02T12:02:24.882Z,46.89
2023-04-02T12:03:24.834Z,49.84
2023-04-02T12:04:24.854Z,50.96
2023-04-02T12:05:24.985Z,49.93
2023-04-02T12:06:24.940Z,48.38
2023-04-02T12:07:24.981Z,49.32
2023-04-02T12:08:25.017Z,48.52
2023-04-02T12:09:25.059Z,53.83
2023-04-02T12:10:25.115Z,54.40
2023-04-02T12:11:25.135Z,52.01
2023-04-02T12:12:25.193Z,54.46
2023-04-02T12:13:25.225Z,52.03
2023-04-02T12:14:25.305Z,53.08
2023-04-02T12:15:25.288Z,56.87
2023-04-02T12:16:25.477Z,54.03
2023-04-02T12:17:25.455Z,55.03
2023-04-02T12:18:25.430Z,53.74
2023-04-02T12:19:25.508Z,56.22
2023-04-02T12:20:25.524Z,54.06
2023-04-02T12:21:25.555Z,55.63
2023-04-02T12:22:25.597Z,56.21
2023-04-02T12:23:25.669Z,55.98
2023-04-02T12:24:25.690Z,58.42
2023-04-02T12:25:25.713Z,58.42
2023-04-02T12:26:25.797Z,57.96
2023-04-02T12:27:25.830Z,55.56
2023-04-02T12:28:25.901Z,57.03
2023-04-02T12:29:25.980Z,57.31
2023-04-02T12:30:26.056Z,59.59
2023-04-02T12:31:26.092Z,56.72
2023-04-02T12:32:27.800Z,56.62
2023-04-02T12:33:26.140Z,61.74
2023-04-02T12:34:26.108Z,61.07
2023-04-02T12:35:26.101Z,60.02
2023-04-02T12:36:26.078Z,61.00
2023-04-02T12:37:26.077Z,60.26
2023-04-02T12:38:26.065Z,58.12
2023-04-02T12:39:28.378Z,57.29
2023-04-02T12:40:26.281Z,57.54
2023-04-02T12:41:26.347Z,58.02
2023-04-02T12:42:26.401Z,58.70
2023-04-02T12:43:26.457Z,61.19
2023-04-02T12:44:26.460Z,59.09
2023-04-02T12:45:28.720Z,61.56
2023-04-02T12:46:26.627Z,62.86
2023-04-02T12:47:26.616Z,63.80
2023-04-02T12:48:26.543Z,61.68
2023-04-02T12:49:26.499Z,61.60
2023-04-02T12:50:26.513Z,61.49
2023-04-02T12:51:28.339Z,59.74
2023-04-02T12:52:26.478Z,64.85
2023-04-02T12:53:26.527Z,64.97
2023-04-02T12:54:26.490Z,62.48